createdAt,value
2018-03-14T00:00:16.297Z,1000.2
2018-03-14T00:01:17.002Z,1000.2
2018-03-14T00:02:18.984Z,1000.2
2018-03-14T00:03:21.231Z,1000.3
2018-03-14T00:04:23.534Z,1000.2
2018-03-14T00:05:27.712Z,1000.2
2018-03-14T00:06:30.770Z,1000.2
2018-03-14T00:07:33.100Z,1000.2
2018-03-14T00:08:36.798Z,1000.2
2018-03-14T00:09:37.158Z,1000.2
2018-03-14T00:10:40.418Z,1000.1
2018-03-14T00:11:41.731Z,1000.2
2018-03-14T00:12:44.306Z,1000.2
2018-03-14T00:13:44.884Z,1000.2
2018-03-14T00:14:48.798Z,1000.3
2018-03-14T00:15:50.172Z,1000.3
2018-03-14T00:16:52.886Z,1000.4
2018-03-14T00:17:56.300Z,1000.4
2018-03-14T00:18:59.801Z,1000.4
2018-03-14T00:20:00.801Z,1000.4
2018-03-14T00:21:02.017Z,1000.4
2018-03-14T00:22:04.719Z,1000.4
2018-03-14T00:23:08.448Z,1000.3
2018-03-14T00:24:12.118Z,1000.5
2018-03-14T00:25:15.495Z,1000.4
2018-03-14T00:26:17.476Z,1000.4
2018-03-14T00:27:19.462Z,1000.5
2018-03-14T00:28:22.110Z,1000.4
2018-03-14T00:29:26.097Z,1000.5
2018-03-14T00:30:29.256Z,1000.4
2018-03-14T00:31:32.961Z,1000.4
2018-03-14T00:32:34.298Z,1000.5
2018-03-14T00:33:37.087Z,1000.5
2018-03-14T00:34:39.093Z,1000.4
2018-03-14T00:35:41.002Z,1000.5
2018-03-14T00:36:42.348Z,1000.5
2018-03-14T00:37:44.358Z,1000.5
2018-03-14T00:38:49.302Z,1000.5
2018-03-14T00:39:51.346Z,1000.5
2018-03-14T00:40:53.464Z,1000.5
2018-03-14T00:41:55.491Z,1000.6
2018-03-14T00:42:58.306Z,1000.5
2018-03-14T00:43:59.302Z,1000.6
2018-03-14T00:45:00.655Z,1000.6
2018-03-14T00:46:01.955Z,1000.6
2018-03-14T00:47:03.338Z,1000.6
2018-03-14T00:48:04.687Z,1000.6
2018-03-14T00:49:08.880Z,1000.6
2018-03-14T00:50:10.980Z,1000.6
2018-03-14T00:51:12.329Z,1000.5
2018-03-14T00:52:13.685Z,1000.6
2018-03-14T00:53:15.963Z,1000.6
2018-03-14T00:54:17.807Z,1000.6
2018-03-14T00:55:19.261Z,1000.6
2018-03-14T00:56:21.359Z,1000.6
2018-03-14T00:57:22.704Z,1000.6
2018-03-14T00:58:25.509Z,1000.6
2018-03-14T00:59:28.388Z,1000.6
2018-03-14T01:00:30.307Z,1000.7
2018-03-14T01:01:32.352Z,1000.6
2018-03-14T01:02:34.461Z,1000.7
2018-03-14T01:03:37.678Z,1000.7
2018-03-14T01:04:39.662Z,1000.7
2018-03-14T01:05:41.806Z,1000.7
2018-03-14T01:06:42.818Z,1000.7
2018-03-14T01:07:44.579Z,1000.7
2018-03-14T01:08:46.898Z,1000.7
2018-03-14T01:09:48.241Z,1000.7
2018-03-14T01:10:50.132Z,1000.7
2018-03-14T01:11:52.152Z,1000.7
2018-03-14T01:12:55.822Z,1000.7
2018-03-14T01:13:59.018Z,1000.7
2018-03-14T01:15:02.310Z,1000.7
2018-03-14T01:16:04.312Z,1000.7
2018-03-14T01:17:05.667Z,1000.7
2018-03-14T01:18:07.978Z,1000.7
2018-03-14T01:19:10.811Z,1000.7
2018-03-14T01:20:12.971Z,1000.7
2018-03-14T01:21:15.166Z,1000.7
2018-03-14T01:22:17.931Z,1000.6
2018-03-14T01:23:19.913Z,1000.7
2018-03-14T01:24:21.896Z,1000.7
2018-03-14T01:25:23.811Z,1000.7
2018-03-14T01:26:24.553Z,1000.7
2018-03-14T01:27:26.825Z,1000.7
2018-03-14T01:28:28.168Z,1000.7
2018-03-14T01:29:31.897Z,1000.7
2018-03-14T01:30:33.248Z,1000.7
2018-03-14T01:31:35.316Z,1000.7
2018-03-14T01:32:36.663Z,1000.6
2018-03-14T01:33:40.047Z,1000.6
2018-03-14T01:34:42.135Z,1000.7
2018-03-14T01:35:44.151Z,1000.7
2018-03-14T01:36:45.501Z,1000.6
2018-03-14T01:37:46.856Z,1000.6
2018-03-14T01:38:48.205Z,1000.6
2018-03-14T01:39:49.554Z,1000.6
2018-03-14T01:40:50.911Z,1000.6
2018-03-14T01:41:52.839Z,1000.6
2018-03-14T01:42:54.188Z,1000.7
2018-03-14T01:43:56.935Z,1000.6
2018-03-14T01:44:59.611Z,1000.7
2018-03-14T01:46:00.947Z,1000.6
2018-03-14T01:47:03.853Z,1000.7
2018-03-14T01:48:05.201Z,1000.7
2018-03-14T01:49:06.552Z,1000.7
2018-03-14T01:50:07.890Z,1000.7
2018-03-14T01:51:09.289Z,1000.7
2018-03-14T01:52:11.223Z,1000.6
2018-03-14T01:53:12.570Z,1000.6
2018-03-14T01:54:13.922Z,1000.6
2018-03-14T01:55:15.272Z,1000.6
2018-03-14T01:56:17.202Z,1000.6
2018-03-14T01:57:19.488Z,1000.6
2018-03-14T01:58:20.836Z,1000.6
2018-03-14T01:59:22.184Z,1000.6
2018-03-14T02:00:23.522Z,1000.6
2018-03-14T02:01:25.463Z,1000.6
2018-03-14T02:02:27.778Z,1000.6
2018-03-14T02:03:29.127Z,1000.6
2018-03-14T02:04:31.186Z,1000.6
2018-03-14T02:05:32.530Z,1000.7
2018-03-14T02:06:33.909Z,1000.6
2018-03-14T02:07:35.831Z,1000.7
2018-03-14T02:08:37.442Z,1000.7
2018-03-14T02:09:40.321Z,1000.6
2018-03-14T02:10:40.826Z,1000.6
2018-03-14T02:11:42.168Z,1000.6
2018-03-14T02:12:43.520Z,1000.6
2018-03-14T02:13:44.862Z,1000.6
2018-03-14T02:14:46.210Z,1000.6
2018-03-14T02:15:48.955Z,1000.7
2018-03-14T02:16:50.315Z,1000.7
2018-03-14T02:17:52.453Z,1000.7
2018-03-14T02:18:53.797Z,1000.7
2018-03-14T02:19:55.174Z,1000.7
2018-03-14T02:20:57.356Z,1000.7
2018-03-14T02:21:58.700Z,1000.7
2018-03-14T02:23:00.045Z,1000.7
2018-03-14T02:24:01.402Z,1000.7
2018-03-14T02:25:02.750Z,1000.6
2018-03-14T02:26:04.897Z,1000.6
2018-03-14T02:27:06.251Z,1000.7
2018-03-14T02:28:07.599Z,1000.7
2018-03-14T02:29:09.868Z,1000.7
2018-03-14T02:30:11.218Z,1000.6
2018-03-14T02:31:13.006Z,1000.6
2018-03-14T02:32:14.352Z,1000.7
2018-03-14T02:33:15.704Z,1000.7
2018-03-14T02:34:17.676Z,1000.7
2018-03-14T02:35:19.965Z,1000.6
2018-03-14T02:36:22.189Z,1000.6
2018-03-14T02:37:23.537Z,1000.6
2018-03-14T02:38:26.215Z,1000.6
2018-03-14T02:39:27.571Z,1000.7
2018-03-14T02:40:29.827Z,1000.7
2018-03-14T02:41:30.236Z,1000.7
2018-03-14T02:42:32.437Z,1000.7
2018-03-14T02:43:35.334Z,1000.7
2018-03-14T02:44:35.769Z,1000.8
2018-03-14T02:45:38.451Z,1000.7
2018-03-14T02:46:40.697Z,1000.7
2018-03-14T02:47:43.205Z,1000.7
2018-03-14T02:48:44.558Z,1000.7
2018-03-14T02:49:45.907Z,1000.8
2018-03-14T02:50:47.246Z,1000.8
2018-03-14T02:51:48.599Z,1000.7
2018-03-14T02:52:49.948Z,1000.8
2018-03-14T02:53:51.884Z,1000.7
2018-03-14T02:54:54.876Z,1000.8
2018-03-14T02:55:56.225Z,1000.7
2018-03-14T02:56:57.590Z,1000.7
2018-03-14T02:57:58.936Z,1000.7
2018-03-14T02:59:00.287Z,1000.7
2018-03-14T03:00:01.636Z,1000.7
2018-03-14T03:01:04.516Z,1000.7
2018-03-14T03:02:05.860Z,1000.7
2018-03-14T03:03:07.196Z,1000.7
2018-03-14T03:04:08.553Z,1000.7
2018-03-14T03:05:09.900Z,1000.7
2018-03-14T03:06:11.252Z,1000.7
2018-03-14T03:07:12.618Z,1000.7
2018-03-14T03:08:13.963Z,1000.7
2018-03-14T03:09:15.312Z,1000.7
2018-03-14T03:10:16.656Z,1000.7
2018-03-14T03:11:18.005Z,1000.7
2018-03-14T03:12:19.348Z,1000.7
2018-03-14T03:13:20.697Z,1000.7
2018-03-14T03:14:22.060Z,1000.7
2018-03-14T03:15:23.403Z,1000.7
2018-03-14T03:16:24.742Z,1000.7
2018-03-14T03:17:26.095Z,1000.7
2018-03-14T03:18:27.477Z,1000.7
2018-03-14T03:19:28.824Z,1000.7
2018-03-14T03:20:30.182Z,1000.7
2018-03-14T03:21:32.335Z,1000.7
2018-03-14T03:22:32.910Z,1000.7
2018-03-14T03:23:34.257Z,1000.7
2018-03-14T03:24:35.605Z,1000.7
2018-03-14T03:25:36.957Z,1000.7
2018-03-14T03:26:38.309Z,1000.7
2018-03-14T03:27:39.657Z,1000.7
2018-03-14T03:28:41.077Z,1000.7
2018-03-14T03:29:43.896Z,1000.7
2018-03-14T03:30:45.250Z,1000.7
2018-03-14T03:31:47.838Z,1000.8
2018-03-14T03:32:49.186Z,1000.7
2018-03-14T03:33:50.535Z,1000.7
2018-03-14T03:34:51.883Z,1000.7
2018-03-14T03:35:53.262Z,1000.8
2018-03-14T03:36:54.619Z,1000.8
2018-03-14T03:37:56.672Z,1000.8
2018-03-14T03:38:58.559Z,1000.7
2018-03-14T03:39:59.900Z,1000.8
2018-03-14T03:41:01.993Z,1000.8
2018-03-14T03:42:03.375Z,1000.8
2018-03-14T03:43:04.728Z,1000.8
2018-03-14T03:44:06.084Z,1000.8
2018-03-14T03:45:07.429Z,1000.8
2018-03-14T03:46:09.552Z,1000.8
2018-03-14T03:47:11.404Z,1000.8
2018-03-14T03:48:13.402Z,1000.8
2018-03-14T03:49:14.736Z,1000.8
2018-03-14T03:50:16.091Z,1000.8
2018-03-14T03:51:17.427Z,1000.8
2018-03-14T03:52:18.779Z,1000.8
2018-03-14T03:53:20.877Z,1000.8
2018-03-14T03:54:22.227Z,1000.8
2018-03-14T03:55:23.575Z,1000.8
2018-03-14T03:56:25.442Z,1000.8
2018-03-14T03:57:26.807Z,1000.8
2018-03-14T03:58:28.152Z,1000.8
2018-03-14T03:59:30.345Z,1000.8
2018-03-14T04:00:30.884Z,1000.9
2018-03-14T04:01:32.236Z,1000.9
2018-03-14T04:02:34.343Z,1000.8
2018-03-14T04:03:35.847Z,1000.9
2018-03-14T04:04:36.446Z,1000.8
2018-03-14T04:05:38.808Z,1000.9
2018-03-14T04:06:40.956Z,1000.9
2018-03-14T04:07:43.738Z,1000.9
2018-03-14T04:08:46.122Z,1000.8
2018-03-14T04:09:47.531Z,1000.8
2018-03-14T04:10:48.918Z,1000.8
2018-03-14T04:11:50.245Z,1000.8
2018-03-14T04:12:52.244Z,1000.8
2018-03-14T04:13:55.177Z,1000.8
2018-03-14T04:14:57.154Z,1000.8
2018-03-14T04:15:58.518Z,1000.8
2018-03-14T04:16:59.870Z,1000.8
2018-03-14T04:18:01.219Z,1000.8
2018-03-14T04:19:02.577Z,1000.8
2018-03-14T04:20:05.279Z,1000.8
2018-03-14T04:21:06.654Z,1000.7
2018-03-14T04:22:07.988Z,1000.7
2018-03-14T04:23:09.346Z,1000.7
2018-03-14T04:24:10.694Z,1000.7
2018-03-14T04:25:12.043Z,1000.7
2018-03-14T04:26:13.399Z,1000.7
2018-03-14T04:27:14.748Z,1000.7
2018-03-14T04:28:16.107Z,1000.7
2018-03-14T04:29:17.537Z,1000.7
2018-03-14T04:30:18.883Z,1000.7
2018-03-14T04:31:20.224Z,1000.7
2018-03-14T04:32:21.573Z,1000.7
2018-03-14T04:33:22.931Z,1000.7
2018-03-14T04:34:24.936Z,1000.7
2018-03-14T04:35:27.353Z,1000.8
2018-03-14T04:36:27.885Z,1000.7
2018-03-14T04:37:30.237Z,1000.8
2018-03-14T04:38:32.581Z,1000.8
2018-03-14T04:39:34.019Z,1000.7
2018-03-14T04:40:35.417Z,1000.8
2018-03-14T04:41:36.798Z,1000.7
2018-03-14T04:42:39.576Z,1000.8
2018-03-14T04:43:41.650Z,1000.8
2018-03-14T04:44:43.059Z,1000.8
2018-03-14T04:45:45.209Z,1000.8
2018-03-14T04:46:47.416Z,1000.8
2018-03-14T04:47:50.070Z,1000.8
2018-03-14T04:48:52.328Z,1000.8
2018-03-14T04:49:54.240Z,1000.8
2018-03-14T04:50:55.583Z,1000.8
2018-03-14T04:51:57.779Z,1000.8
2018-03-14T04:52:59.774Z,1000.8
2018-03-14T04:54:01.730Z,1000.8
2018-03-14T04:55:03.561Z,1000.8
2018-03-14T04:56:05.758Z,1000.8
2018-03-14T04:57:07.150Z,1000.8
2018-03-14T04:58:09.357Z,1000.7
2018-03-14T04:59:10.373Z,1000.8
2018-03-14T05:00:11.784Z,1000.7
2018-03-14T05:01:14.152Z,1000.7
2018-03-14T05:02:16.430Z,1000.7
2018-03-14T05:03:19.544Z,1000.6
2018-03-14T05:04:21.094Z,1000.6
2018-03-14T05:05:22.460Z,1000.6
2018-03-14T05:06:23.855Z,1000.6
2018-03-14T05:07:25.271Z,1000.6
2018-03-14T05:08:26.674Z,1000.6
2018-03-14T05:09:28.069Z,1000.6
2018-03-14T05:10:29.432Z,1000.6
2018-03-14T05:11:33.904Z,1000.6
2018-03-14T05:12:35.461Z,1000.6
2018-03-14T05:13:36.811Z,1000.6
2018-03-14T05:14:38.171Z,1000.6
2018-03-14T05:15:40.311Z,1000.6
2018-03-14T05:16:42.529Z,1000.6
2018-03-14T05:17:44.858Z,1000.6
2018-03-14T05:18:46.031Z,1000.6
2018-03-14T05:19:49.010Z,1000.6
2018-03-14T05:20:51.541Z,1000.6
2018-03-14T05:21:52.916Z,1000.6
2018-03-14T05:22:54.271Z,1000.7
2018-03-14T05:23:55.628Z,1000.6
2018-03-14T05:24:56.991Z,1000.6
2018-03-14T05:25:58.354Z,1000.6
2018-03-14T05:27:00.365Z,1000.6
2018-03-14T05:28:01.718Z,1000.7
2018-03-14T05:29:03.085Z,1000.6
2018-03-14T05:30:04.472Z,1000.6
2018-03-14T05:31:06.684Z,1000.6
2018-03-14T05:32:08.023Z,1000.7
2018-03-14T05:33:09.380Z,1000.7
2018-03-14T05:34:10.727Z,1000.6
2018-03-14T05:35:12.077Z,1000.7
2018-03-14T05:36:13.443Z,1000.6
2018-03-14T05:37:16.132Z,1000.6
2018-03-14T05:38:17.501Z,1000.6
2018-03-14T05:39:18.855Z,1000.7
2018-03-14T05:40:20.198Z,1000.6
2018-03-14T05:41:21.680Z,1000.7
2018-03-14T05:42:23.031Z,1000.7
2018-03-14T05:43:27.392Z,1000.6
2018-03-14T05:44:32.904Z,1000.7
2018-03-14T05:45:37.290Z,1000.7
2018-03-14T05:46:41.036Z,1000.7
2018-03-14T05:47:45.872Z,1000.7
2018-03-14T05:48:46.471Z,1000.7
2018-03-14T05:49:48.432Z,1000.7
2018-03-14T05:50:49.810Z,1000.7
2018-03-14T05:51:52.712Z,1000.6
2018-03-14T05:52:55.255Z,1000.7
2018-03-14T05:53:57.334Z,1000.7
2018-03-14T05:54:59.236Z,1000.7
2018-03-14T05:56:01.540Z,1000.7
2018-03-14T05:57:04.341Z,1000.7
2018-03-14T05:58:08.010Z,1000.7
2018-03-14T05:59:09.873Z,1000.7
2018-03-14T06:00:11.252Z,1000.7
2018-03-14T06:01:13.511Z,1000.7
2018-03-14T06:02:14.855Z,1000.6
2018-03-14T06:03:16.206Z,1000.7
2018-03-14T06:04:19.158Z,1000.7
2018-03-14T06:05:20.544Z,1000.7
2018-03-14T06:06:21.893Z,1000.7
2018-03-14T06:07:23.930Z,1000.7
2018-03-14T06:08:25.280Z,1000.7
2018-03-14T06:09:28.869Z,1000.7
2018-03-14T06:10:29.256Z,1000.7
2018-03-14T06:11:30.600Z,1000.7
2018-03-14T06:12:31.955Z,1000.7
2018-03-14T06:13:33.397Z,1000.8
2018-03-14T06:14:34.741Z,1000.7
2018-03-14T06:15:36.095Z,1000.7
2018-03-14T06:16:37.449Z,1000.8
2018-03-14T06:17:38.831Z,1000.8
2018-03-14T06:18:40.178Z,1000.8
2018-03-14T06:19:41.541Z,1000.8
2018-03-14T06:20:42.886Z,1000.8
2018-03-14T06:21:45.016Z,1000.8
2018-03-14T06:22:46.360Z,1000.8
2018-03-14T06:23:47.716Z,1000.8
2018-03-14T06:24:50.598Z,1000.8
2018-03-14T06:25:53.475Z,1000.8
2018-03-14T06:26:54.836Z,1000.9
2018-03-14T06:27:56.742Z,1000.8
2018-03-14T06:28:59.225Z,1000.8
2018-03-14T06:30:01.371Z,1000.9
2018-03-14T06:31:02.727Z,1000.9
2018-03-14T06:32:05.869Z,1000.8
2018-03-14T06:33:08.474Z,1000.8
2018-03-14T06:34:09.809Z,1000.8
2018-03-14T06:35:13.375Z,1000.8
2018-03-14T06:36:13.339Z,1000.8
2018-03-14T06:37:15.266Z,1000.8
2018-03-14T06:38:17.193Z,1000.9
2018-03-14T06:39:19.437Z,1000.9
2018-03-14T06:40:21.556Z,1000.8
2018-03-14T06:41:23.777Z,1000.8
2018-03-14T06:42:26.673Z,1000.9
2018-03-14T06:43:28.895Z,1000.9
2018-03-14T06:44:31.196Z,1000.8
2018-03-14T06:45:32.552Z,1000.8
2018-03-14T06:46:33.938Z,1000.8
2018-03-14T06:47:35.290Z,1000.9
2018-03-14T06:48:37.523Z,1000.8
2018-03-14T06:49:38.877Z,1000.8
2018-03-14T06:50:40.785Z,1000.8
2018-03-14T06:51:42.724Z,1000.8
2018-03-14T06:52:44.646Z,1000.8
2018-03-14T06:53:48.036Z,1000.9
2018-03-14T06:54:49.390Z,1000.9
2018-03-14T06:55:50.752Z,1000.9
2018-03-14T06:56:53.915Z,1001.0
2018-03-14T06:57:55.263Z,1001.1
2018-03-14T06:58:57.086Z,1001.1
2018-03-14T06:59:59.241Z,1001.1
2018-03-14T07:01:00.603Z,1001.1
2018-03-14T07:02:03.787Z,1001.1
2018-03-14T07:03:05.896Z,1001.1
2018-03-14T07:04:08.877Z,1001.2
2018-03-14T07:05:10.176Z,1001.2
2018-03-14T07:06:11.526Z,1001.1
2018-03-14T07:07:13.771Z,1001.1
2018-03-14T07:08:15.771Z,1001.2
2018-03-14T07:09:18.039Z,1001.2
2018-03-14T07:10:20.985Z,1001.2
2018-03-14T07:11:22.338Z,1001.2
2018-03-14T07:12:23.697Z,1001.2
2018-03-14T07:13:26.411Z,1001.3
2018-03-14T07:14:27.765Z,1001.3
2018-03-14T07:15:29.773Z,1001.3
2018-03-14T07:16:32.892Z,1001.2
2018-03-14T07:17:33.305Z,1001.3
2018-03-14T07:18:34.669Z,1001.3
2018-03-14T07:19:36.978Z,1001.3
2018-03-14T07:20:40.651Z,1001.3
2018-03-14T07:21:42.881Z,1001.3
2018-03-14T07:22:44.985Z,1001.3
2018-03-14T07:23:46.885Z,1001.3
2018-03-14T07:24:47.657Z,1001.3
2018-03-14T07:25:50.666Z,1001.3
2018-03-14T07:26:52.724Z,1001.3
2018-03-14T07:27:54.086Z,1001.3
2018-03-14T07:28:57.035Z,1001.3
2018-03-14T07:29:59.030Z,1001.2
2018-03-14T07:31:00.395Z,1001.2
2018-03-14T07:32:02.499Z,1001.2
2018-03-14T07:33:04.552Z,1001.2
2018-03-14T07:34:06.495Z,1001.2
2018-03-14T07:35:10.051Z,1001.2
2018-03-14T07:36:12.134Z,1001.2
2018-03-14T07:37:13.492Z,1001.4
2018-03-14T07:38:14.858Z,1001.4
2018-03-14T07:39:16.223Z,1001.5
2018-03-14T07:40:19.386Z,1001.4
2018-03-14T07:41:21.586Z,1001.4
2018-03-14T07:42:23.666Z,1001.5
2018-03-14T07:43:25.570Z,1001.5
2018-03-14T07:44:26.921Z,1001.6
2018-03-14T07:45:30.126Z,1001.6
2018-03-14T07:46:32.221Z,1001.6
2018-03-14T07:47:35.966Z,1001.7
2018-03-14T07:48:37.340Z,1001.5
2018-03-14T07:49:39.365Z,1001.5
2018-03-14T07:50:40.736Z,1001.5
2018-03-14T07:51:42.125Z,1001.5
2018-03-14T07:52:44.307Z,1001.6
2018-03-14T07:53:46.212Z,1001.6
2018-03-14T07:54:47.566Z,1002.0
2018-03-14T07:55:49.753Z,1001.7
2018-03-14T07:56:51.854Z,1001.6
2018-03-14T07:57:53.714Z,1001.6
2018-03-14T07:58:55.933Z,1001.6
2018-03-14T07:59:58.122Z,1001.5
2018-03-14T08:00:59.496Z,1001.6
2018-03-14T08:02:00.851Z,1001.6
2018-03-14T08:03:02.227Z,1001.7
2018-03-14T08:04:03.617Z,1001.6
2018-03-14T08:05:04.967Z,1001.7
2018-03-14T08:06:08.216Z,1001.7
2018-03-14T08:07:11.398Z,1001.7
2018-03-14T08:08:11.993Z,1001.8
2018-03-14T08:09:14.245Z,1001.6
2018-03-14T08:10:16.553Z,1001.5
2018-03-14T08:11:17.905Z,1001.6
2018-03-14T08:12:20.614Z,1001.6
2018-03-14T08:13:22.985Z,1001.6
2018-03-14T08:14:25.161Z,1001.5
2018-03-14T08:15:28.953Z,1001.7
2018-03-14T08:16:34.396Z,1001.5
2018-03-14T08:17:34.826Z,1001.3
2018-03-14T08:18:37.060Z,1001.3
2018-03-14T08:19:39.263Z,1001.3
2018-03-14T08:20:40.627Z,1001.1
2018-03-14T08:21:42.703Z,1001.3
2018-03-14T08:22:44.075Z,1001.4
2018-03-14T08:23:45.438Z,1001.4
2018-03-14T08:24:46.807Z,1001.4
2018-03-14T08:25:48.154Z,1001.5
2018-03-14T08:26:51.455Z,1001.6
2018-03-14T08:27:52.860Z,1001.8
2018-03-14T08:28:54.950Z,1001.9
2018-03-14T08:29:56.313Z,1001.8
2018-03-14T08:30:59.483Z,1001.4
2018-03-14T08:32:00.851Z,1001.2
2018-03-14T08:33:02.447Z,1001.4
2018-03-14T08:34:04.979Z,1001.4
2018-03-14T08:35:07.235Z,1001.4
2018-03-14T08:36:08.870Z,1001.3
2018-03-14T08:37:11.545Z,1001.4
2018-03-14T08:38:13.652Z,1001.4
2018-03-14T08:39:15.080Z,1001.4
2018-03-14T08:40:17.160Z,1001.5
2018-03-14T08:41:19.905Z,1001.5
2018-03-14T08:42:20.847Z,1001.6
2018-03-14T08:43:22.224Z,1001.6
2018-03-14T08:44:23.700Z,1001.6
2018-03-14T08:45:26.031Z,1001.6
2018-03-14T08:46:28.111Z,1001.6
2018-03-14T08:47:30.126Z,1001.6
2018-03-14T08:48:31.620Z,1001.6
2018-03-14T08:49:33.560Z,1001.6
2018-03-14T08:50:35.010Z,1001.6
2018-03-14T08:51:37.410Z,1001.6
2018-03-14T08:52:38.095Z,1001.6
2018-03-14T08:53:40.411Z,1001.6
2018-03-14T08:54:41.015Z,1001.5
2018-03-14T08:55:42.434Z,1001.5
2018-03-14T08:56:43.827Z,1001.7
2018-03-14T08:57:45.378Z,1001.8
2018-03-14T08:58:46.914Z,1001.8
2018-03-14T08:59:48.438Z,1001.7
2018-03-14T09:00:50.074Z,1001.6
2018-03-14T09:01:52.526Z,1001.6
2018-03-14T09:02:53.923Z,1001.8
2018-03-14T09:03:55.358Z,1002.7
2018-03-14T09:04:57.409Z,1002.3
2018-03-14T09:06:00.455Z,1001.8
2018-03-14T09:07:01.977Z,1002.2
2018-03-14T09:08:03.835Z,1002.6
2018-03-14T09:09:06.118Z,1002.1
2018-03-14T09:10:09.538Z,1002.1
2018-03-14T09:11:11.900Z,1001.7
2018-03-14T09:12:13.259Z,1001.8
2018-03-14T09:13:15.364Z,1001.1
2018-03-14T09:14:17.530Z,1001.1
2018-03-14T09:15:19.297Z,1002.0
2018-03-14T09:16:20.898Z,1001.9
2018-03-14T09:17:22.351Z,1001.7
2018-03-14T09:18:23.727Z,1001.4
2018-03-14T09:19:26.107Z,1001.2
2018-03-14T09:20:28.408Z,1000.9
2018-03-14T09:21:29.854Z,1001.0
2018-03-14T09:22:31.537Z,1001.0
2018-03-14T09:23:34.457Z,1001.0
2018-03-14T09:24:36.956Z,1000.9
2018-03-14T09:25:39.252Z,1001.0
2018-03-14T09:26:41.326Z,1001.1
2018-03-14T09:27:43.504Z,1001.2
2018-03-14T09:28:46.324Z,1002.6
2018-03-14T09:29:47.725Z,1002.7
2018-03-14T09:30:50.638Z,1002.3
2018-03-14T09:31:52.042Z,1002.4
2018-03-14T09:32:54.463Z,1002.2
2018-03-14T09:33:56.756Z,1002.1
2018-03-14T09:34:59.107Z,1002.1
2018-03-14T09:36:00.633Z,1001.5
2018-03-14T09:37:02.225Z,1001.8
2018-03-14T09:38:03.923Z,1002.6
2018-03-14T09:39:06.324Z,1002.1
2018-03-14T09:40:09.919Z,1001.0
2018-03-14T09:41:11.204Z,1000.3
2018-03-14T09:42:13.754Z,1000.5
2018-03-14T09:43:16.071Z,1000.5
2018-03-14T09:44:19.056Z,1000.6
2018-03-14T09:45:21.212Z,1000.5
2018-03-14T09:46:23.653Z,1000.6
2018-03-14T09:47:26.673Z,1000.5
2018-03-14T09:48:28.087Z,1000.4
2018-03-14T09:49:29.582Z,1000.6
2018-03-14T09:50:31.028Z,1000.8
2018-03-14T09:51:34.210Z,1001.1
2018-03-14T09:52:35.612Z,1001.5
2018-03-14T09:53:37.277Z,1002.8
2018-03-14T09:54:40.076Z,1002.3
2018-03-14T09:55:41.750Z,1002.1
2018-03-14T09:56:43.405Z,1001.2
2018-03-14T09:57:46.451Z,1001.0
2018-03-14T09:58:49.804Z,1001.0
2018-03-14T09:59:52.962Z,1001.1
2018-03-14T10:00:54.338Z,1001.0
2018-03-14T10:01:56.125Z,1001.1
2018-03-14T10:02:57.990Z,1000.9
2018-03-14T10:03:59.496Z,1000.9
2018-03-14T10:05:00.891Z,1001.2
2018-03-14T10:06:04.590Z,1001.0
2018-03-14T10:07:06.200Z,1001.1
2018-03-14T10:08:07.694Z,1001.1
2018-03-14T10:09:11.440Z,1001.0
2018-03-14T10:10:12.145Z,1001.0
2018-03-14T10:11:14.053Z,1000.9
2018-03-14T10:12:16.951Z,1000.8
2018-03-14T10:13:19.175Z,1000.7
2018-03-14T10:14:20.896Z,1000.8
2018-03-14T10:15:23.209Z,1002.2
2018-03-14T10:16:25.035Z,1002.0
2018-03-14T10:17:26.635Z,1001.8
2018-03-14T10:18:29.936Z,1001.9
2018-03-14T10:19:32.103Z,1001.9
2018-03-14T10:20:33.580Z,1001.9
2018-03-14T10:21:35.739Z,1001.7
2018-03-14T10:22:38.641Z,1001.8
2018-03-14T10:23:40.070Z,1002.0
2018-03-14T10:24:42.105Z,1001.9
2018-03-14T10:25:45.347Z,1001.8
2018-03-14T10:26:47.625Z,1001.9
2018-03-14T10:27:50.034Z,1001.9
2018-03-14T10:28:53.513Z,1001.8
2018-03-14T10:29:55.866Z,1001.6
2018-03-14T10:30:58.105Z,1001.5
2018-03-14T10:31:59.696Z,1001.3
2018-03-14T10:33:02.712Z,1000.5
2018-03-14T10:34:05.032Z,1001.2
2018-03-14T10:35:07.748Z,1000.5
2018-03-14T10:36:09.167Z,1001.4
2018-03-14T10:37:11.168Z,1000.1
2018-03-14T10:38:13.746Z,1000.3
2018-03-14T10:39:15.230Z,1000.5
2018-03-14T10:40:19.582Z,1000.4
2018-03-14T10:41:22.016Z,1000.1
2018-03-14T10:42:24.738Z,1000.5
2018-03-14T10:43:27.012Z,1000.4
2018-03-14T10:44:29.393Z,1000.6
2018-03-14T10:45:31.696Z,1000.6
2018-03-14T10:46:34.956Z,1000.5
2018-03-14T10:47:36.311Z,1000.4
2018-03-14T10:48:37.732Z,1000.6
2018-03-14T10:49:39.955Z,1000.8
2018-03-14T10:50:41.314Z,1002.3
2018-03-14T10:51:43.780Z,1002.1
2018-03-14T10:52:45.242Z,1001.7
2018-03-14T10:53:47.470Z,1002.1
2018-03-14T10:54:49.827Z,1001.7
2018-03-14T10:55:52.258Z,1000.9
2018-03-14T10:56:54.228Z,1000.8
2018-03-14T10:57:56.569Z,1001.6
2018-03-14T10:58:58.598Z,1001.5
2018-03-14T11:00:00.024Z,1001.2
2018-03-14T11:01:01.939Z,1001.4
2018-03-14T11:02:04.425Z,1001.3
2018-03-14T11:03:06.666Z,1001.3
2018-03-14T11:04:08.847Z,1001.4
2018-03-14T11:05:10.966Z,1001.0
2018-03-14T11:06:12.731Z,1001.2
2018-03-14T11:07:15.587Z,1000.1
2018-03-14T11:08:17.986Z,999.6
2018-03-14T11:09:19.415Z,1001.3
2018-03-14T11:10:21.418Z,1000.3
2018-03-14T11:11:23.786Z,1000.8
2018-03-14T11:12:26.599Z,1002.0
2018-03-14T11:13:28.848Z,1001.9
2018-03-14T11:14:30.262Z,1001.6
2018-03-14T11:15:33.224Z,1001.7
2018-03-14T11:16:34.863Z,1001.6
2018-03-14T11:17:36.905Z,1001.5
2018-03-14T11:18:38.442Z,1000.1
2018-03-14T11:19:41.684Z,1000.9
2018-03-14T11:20:43.870Z,1000.9
2018-03-14T11:21:45.330Z,1000.1
2018-03-14T11:22:48.637Z,999.6
2018-03-14T11:23:50.962Z,1001.2
2018-03-14T11:24:52.097Z,1000.8
2018-03-14T11:25:55.154Z,999.6
2018-03-14T11:26:57.637Z,999.8
2018-03-14T11:27:59.108Z,1000.0
2018-03-14T11:29:01.213Z,1000.1
2018-03-14T11:30:04.364Z,1000.6
2018-03-14T11:31:06.675Z,1001.3
2018-03-14T11:32:09.530Z,1000.5
2018-03-14T11:33:12.263Z,999.9
2018-03-14T11:34:13.808Z,1000.0
2018-03-14T11:35:16.272Z,1000.2
2018-03-14T11:36:19.987Z,1000.1
2018-03-14T11:37:21.052Z,1000.1
2018-03-14T11:38:23.089Z,1000.2
2018-03-14T11:39:24.667Z,1000.3
2018-03-14T11:40:26.860Z,1000.1
2018-03-14T11:41:28.836Z,1000.1
2018-03-14T11:42:30.361Z,999.9
2018-03-14T11:43:31.789Z,1000.0
2018-03-14T11:44:34.508Z,1000.2
2018-03-14T11:45:37.555Z,1000.1
2018-03-14T11:46:40.042Z,1000.0
2018-03-14T11:47:43.067Z,1000.1
2018-03-14T11:48:45.185Z,1000.2
2018-03-14T11:49:46.705Z,1000.1
2018-03-14T11:50:48.221Z,1000.2
2018-03-14T11:51:49.757Z,1000.3
2018-03-14T11:52:53.633Z,1000.4
2018-03-14T11:53:55.186Z,1000.5
2018-03-14T11:54:57.613Z,1000.6
2018-03-14T11:55:59.823Z,1000.6
2018-03-14T11:57:01.368Z,1000.7
2018-03-14T11:58:02.884Z,1000.8
2018-03-14T11:59:11.773Z,1000.7
2018-03-14T12:00:14.059Z,1000.7
2018-03-14T12:01:15.967Z,1000.7
2018-03-14T12:02:18.266Z,1000.5
2018-03-14T12:03:20.363Z,1000.6
2018-03-14T12:04:21.766Z,1000.4
2018-03-14T12:05:23.954Z,1000.4
2018-03-14T12:06:26.676Z,1000.5
2018-03-14T12:07:29.368Z,1002.1
2018-03-14T12:08:31.493Z,1002.0
2018-03-14T12:09:35.924Z,1001.7
2018-03-14T12:10:37.497Z,999.9
2018-03-14T12:11:39.829Z,999.5
2018-03-14T12:12:42.289Z,999.6
2018-03-14T12:13:43.716Z,1000.7
2018-03-14T12:14:45.859Z,1000.1
2018-03-14T12:15:47.385Z,1000.3
2018-03-14T12:16:48.781Z,1000.8
2018-03-14T12:17:51.003Z,1000.2
2018-03-14T12:18:53.328Z,1000.4
2018-03-14T12:19:55.125Z,1000.5
2018-03-14T12:20:57.807Z,1000.2
2018-03-14T12:22:00.738Z,1000.4
2018-03-14T12:23:02.961Z,999.8
2018-03-14T12:24:04.396Z,1000.6
2018-03-14T12:25:06.678Z,1000.1
2018-03-14T12:26:08.736Z,1000.2
2018-03-14T12:27:12.568Z,999.3
2018-03-14T12:28:15.260Z,999.1
2018-03-14T12:29:16.716Z,999.4
2018-03-14T12:30:19.683Z,1000.5
2018-03-14T12:31:22.558Z,1000.4
2018-03-14T12:32:23.993Z,1000.1
2018-03-14T12:33:27.220Z,999.7
2018-03-14T12:34:29.926Z,1000.1
2018-03-14T12:35:32.504Z,999.6
2018-03-14T12:36:36.036Z,999.9
2018-03-14T12:37:38.491Z,999.9
2018-03-14T12:38:40.907Z,999.7
2018-03-14T12:39:42.834Z,1000.1
2018-03-14T12:40:44.992Z,999.8
2018-03-14T12:41:47.562Z,999.9
2018-03-14T12:42:50.707Z,998.7
2018-03-14T12:43:52.665Z,998.5
2018-03-14T12:44:54.084Z,998.4
2018-03-14T12:45:57.034Z,998.2
2018-03-14T12:46:59.360Z,998.3
2018-03-14T12:48:01.728Z,998.4
2018-03-14T12:49:03.418Z,998.7
2018-03-14T12:50:04.834Z,1000.0
2018-03-14T12:51:09.013Z,999.8
2018-03-14T12:52:13.010Z,999.6
2018-03-14T12:53:14.938Z,999.3
2018-03-14T12:54:16.773Z,999.7